sensor_id;sensor_type;location;lat;lon;timestamp;temperature;humidity
6462;DHT22;3264;42.862;25.098;2022-08-21T00:01:41;19.50;99.90
6462;DHT22;3264;42.862;25.098;2022-08-21T00:07:32;19.70;99.90
6462;DHT22;3264;42.862;25.098;2022-08-21T00:10:00;19.40;99.90
6462;DHT22;3264;42.862;25.098;2022-08-21T00:12:28;19.30;99.90
6462;DHT22;3264;42.862;25.098;2022-08-21T00:14:59;19.40;99.90
6462;DHT22;3264;42.862;25.098;2022-08-21T00:17:28;19.60;99.90
6462;DHT22;3264;42.862;25.098;2022-08-21T00:19:57;19.50;99.90
6462;DHT22;3264;42.862;25.098;2022-08-21T00:22:25;19.40;99.90
6462;DHT22;3264;42.862;25.098;2022-08-21T00:24:54;19.50;99.90
6462;DHT22;3264;42.862;25.098;2022-08-21T00:27:23;19.50;99.90
6462;DHT22;3264;42.862;25.098;2022-08-21T00:29:51;19.60;99.90
6462;DHT22;3264;42.862;25.098;2022-08-21T00:32:24;19.70;99.90
6462;DHT22;3264;42.862;25.098;2022-08-21T00:34:54;19.60;99.90
6462;DHT22;3264;42.862;25.098;2022-08-21T00:37:33;19.50;99.90
6462;DHT22;3264;42.862;25.098;2022-08-21T00:40:02;19.50;99.90
6462;DHT22;3264;42.862;25.098;2022-08-21T00:42:30;19.30;99.90
6462;DHT22;3264;42.862;25.098;2022-08-21T00:51:43;19.40;99.90
6462;DHT22;3264;42.862;25.098;2022-08-21T01:00:41;19.40;99.90
6462;DHT22;3264;42.862;25.098;2022-08-21T01:03:12;19.40;99.90
6462;DHT22;3264;42.862;25.098;2022-08-21T01:05:42;19.50;99.90
6462;DHT22;3264;42.862;25.098;2022-08-21T01:08:13;19.60;99.90
6462;DHT22;3264;42.862;25.098;2022-08-21T01:14:14;19.30;99.90
6462;DHT22;3264;42.862;25.098;2022-08-21T01:16:47;19.30;99.90
6462;DHT22;3264;42.862;25.098;2022-08-21T01:51:20;19.30;99.90
6462;DHT22;3264;42.862;25.098;2022-08-21T01:53:49;19.30;99.90
6462;DHT22;3264;42.862;25.098;2022-08-21T01:56:18;19.10;99.90
6462;DHT22;3264;42.862;25.098;2022-08-21T01:58:47;19.10;99.90
6462;DHT22;3264;42.862;25.098;2022-08-21T02:01:16;19.20;99.90
6462;DHT22;3264;42.862;25.098;2022-08-21T02:03:47;19.30;99.90
6462;DHT22;3264;42.862;25.098;2022-08-21T02:06:16;19.20;99.90
6462;DHT22;3264;42.862;25.098;2022-08-21T02:08:47;19.00;99.90
6462;DHT22;3264;42.862;25.098;2022-08-21T02:11:16;19.10;99.90
6462;DHT22;3264;42.862;25.098;2022-08-21T02:13:45;19.00;99.90
6462;DHT22;3264;42.862;25.098;2022-08-21T02:16:13;18.90;99.90
6462;DHT22;3264;42.862;25.098;2022-08-21T02:18:41;18.90;99.90
6462;DHT22;3264;42.862;25.098;2022-08-21T02:24:27;18.80;99.90
6462;DHT22;3264;42.862;25.098;2022-08-21T02:26:56;18.80;99.90
6462;DHT22;3264;42.862;25.098;2022-08-21T02:29:24;18.80;99.90
6462;DHT22;3264;42.862;25.098;2022-08-21T02:31:53;18.70;99.90
6462;DHT22;3264;42.862;25.098;2022-08-21T02:34:36;18.80;99.90
6462;DHT22;3264;42.862;25.098;2022-08-21T02:43:53;18.70;99.90
6462;DHT22;3264;42.862;25.098;2022-08-21T02:46:22;18.60;99.90
6462;DHT22;3264;42.862;25.098;2022-08-21T02:48:50;18.60;99.90
6462;DHT22;3264;42.862;25.098;2022-08-21T02:51:19;18.60;99.90
6462;DHT22;3264;42.862;25.098;2022-08-21T02:53:49;18.60;99.90
6462;DHT22;3264;42.862;25.098;2022-08-21T02:56:21;18.50;99.90
6462;DHT22;3264;42.862;25.098;2022-08-21T03:02:14;18.60;99.90
6462;DHT22;3264;42.862;25.098;2022-08-21T03:04:48;18.60;99.90
6462;DHT22;3264;42.862;25.098;2022-08-21T03:14:01;18.70;99.90
6462;DHT22;3264;42.862;25.098;2022-08-21T03:16:32;18.70;99.90
6462;DHT22;3264;42.862;25.098;2022-08-21T03:19:02;18.80;99.90
6462;DHT22;3264;42.862;25.098;2022-08-21T03:32:50;18.80;99.90
6462;DHT22;3264;42.862;25.098;2022-08-21T03:35:22;18.80;99.90
6462;DHT22;3264;42.862;25.098;2022-08-21T03:37:51;18.80;99.90
6462;DHT22;3264;42.862;25.098;2022-08-21T03:40:22;18.80;99.90
6462;DHT22;3264;42.862;25.098;2022-08-21T03:42:51;18.80;99.90
6462;DHT22;3264;42.862;25.098;2022-08-21T03:45:20;18.70;99.90
6462;DHT22;3264;42.862;25.098;2022-08-21T03:47:54;18.60;99.90
6462;DHT22;3264;42.862;25.098;2022-08-21T03:50:42;18.70;99.90
6462;DHT22;3264;42.862;25.098;2022-08-21T03:53:15;18.70;99.90
6462;DHT22;3264;42.862;25.098;2022-08-21T03:55:43;18.70;99.90
6462;DHT22;3264;42.862;25.098;2022-08-21T03:58:12;18.70;99.90
6462;DHT22;3264;42.862;25.098;2022-08-21T04:00:40;18.80;99.90
6462;DHT22;3264;42.862;25.098;2022-08-21T04:06:47;18.80;99.90
6462;DHT22;3264;42.862;25.098;2022-08-21T04:09:17;18.80;99.90
6462;DHT22;3264;42.862;25.098;2022-08-21T04:11:47;18.80;99.90
6462;DHT22;3264;42.862;25.098;2022-08-21T04:14:16;18.80;99.90
6462;DHT22;3264;42.862;25.098;2022-08-21T04:16:47;18.70;99.90
6462;DHT22;3264;42.862;25.098;2022-08-21T04:19:15;18.60;99.90
6462;DHT22;3264;42.862;25.098;2022-08-21T04:21:48;18.80;99.90
6462;DHT22;3264;42.862;25.098;2022-08-21T04:24:16;18.80;99.90
6462;DHT22;3264;42.862;25.098;2022-08-21T04:26:46;18.80;99.90
6462;DHT22;3264;42.862;25.098;2022-08-21T04:30:03;19.00;99.90
6462;DHT22;3264;42.862;25.098;2022-08-21T04:32:51;19.00;99.90
6462;DHT22;3264;42.862;25.098;2022-08-21T04:35:23;19.10;99.90
6462;DHT22;3264;42.862;25.098;2022-08-21T04:38:23;19.10;99.90
6462;DHT22;3264;42.862;25.098;2022-08-21T04:40:51;19.00;99.90
6462;DHT22;3264;42.862;25.098;2022-08-21T04:43:28;19.00;99.90
6462;DHT22;3264;42.862;25.098;2022-08-21T04:46:13;19.20;99.90
6462;DHT22;3264;42.862;25.098;2022-08-21T04:49:07;19.30;99.90
6462;DHT22;3264;42.862;25.098;2022-08-21T04:51:59;19.50;99.90
6462;DHT22;3264;42.862;25.098;2022-08-21T04:54:29;19.20;99.90
6462;DHT22;3264;42.862;25.098;2022-08-21T04:57:01;19.10;99.90
6462;DHT22;3264;42.862;25.098;2022-08-21T05:12:18;19.40;99.90
6462;DHT22;3264;42.862;25.098;2022-08-21T05:14:49;19.20;99.90
6462;DHT22;3264;42.862;25.098;2022-08-21T05:17:39;19.20;99.90
6462;DHT22;3264;42.862;25.098;2022-08-21T05:20:13;19.30;99.90
6462;DHT22;3264;42.862;25.098;2022-08-21T05:22:56;19.30;99.90
6462;DHT22;3264;42.862;25.098;2022-08-21T05:25:43;19.50;99.90
6462;DHT22;3264;42.862;25.098;2022-08-21T05:28:13;19.40;99.90
6462;DHT22;3264;42.862;25.098;2022-08-21T05:34:04;19.10;99.90
6462;DHT22;3264;42.862;25.098;2022-08-21T05:36:32;19.20;99.90
6462;DHT22;3264;42.862;25.098;2022-08-21T05:39:01;19.40;99.90
6462;DHT22;3264;42.862;25.098;2022-08-21T05:41:43;19.30;99.90
6462;DHT22;3264;42.862;25.098;2022-08-21T05:44:16;19.30;99.90
6462;DHT22;3264;42.862;25.098;2022-08-21T05:47:12;19.20;99.90
6462;DHT22;3264;42.862;25.098;2022-08-21T05:49:43;19.30;99.90
6462;DHT22;3264;42.862;25.098;2022-08-21T05:52:11;19.30;99.90
6462;DHT22;3264;42.862;25.098;2022-08-21T05:54:40;19.40;99.90
6462;DHT22;3264;42.862;25.098;2022-08-21T05:57:09;19.50;99.90
6462;DHT22;3264;42.862;25.098;2022-08-21T05:59:39;19.40;99.90
6462;DHT22;3264;42.862;25.098;2022-08-21T06:02:07;19.40;99.90
6462;DHT22;3264;42.862;25.098;2022-08-21T06:04:38;19.20;99.90
6462;DHT22;3264;42.862;25.098;2022-08-21T06:07:08;19.30;99.90
6462;DHT22;3264;42.862;25.098;2022-08-21T06:09:39;19.40;99.90
6462;DHT22;3264;42.862;25.098;2022-08-21T06:12:09;19.40;99.90
6462;DHT22;3264;42.862;25.098;2022-08-21T06:14:40;19.50;99.90
6462;DHT22;3264;42.862;25.098;2022-08-21T06:17:10;19.70;99.90
6462;DHT22;3264;42.862;25.098;2022-08-21T06:19:40;19.70;99.90
6462;DHT22;3264;42.862;25.098;2022-08-21T06:22:09;19.80;99.90
6462;DHT22;3264;42.862;25.098;2022-08-21T06:24:46;19.60;99.90
6462;DHT22;3264;42.862;25.098;2022-08-21T06:27:14;19.60;99.90
6462;DHT22;3264;42.862;25.098;2022-08-21T06:29:46;19.60;99.90
6462;DHT22;3264;42.862;25.098;2022-08-21T06:35:35;19.50;99.90
6462;DHT22;3264;42.862;25.098;2022-08-21T06:38:04;19.50;99.90
6462;DHT22;3264;42.862;25.098;2022-08-21T06:40:34;19.70;99.90
6462;DHT22;3264;42.862;25.098;2022-08-21T06:43:07;19.80;99.90
6462;DHT22;3264;42.862;25.098;2022-08-21T06:45:38;19.90;99.90
6462;DHT22;3264;42.862;25.098;2022-08-21T06:48:15;20.00;99.90
6462;DHT22;3264;42.862;25.098;2022-08-21T06:54:08;20.50;99.90
6462;DHT22;3264;42.862;25.098;2022-08-21T06:56:49;20.50;99.90
6462;DHT22;3264;42.862;25.098;2022-08-21T06:59:17;20.50;99.90
6462;DHT22;3264;42.862;25.098;2022-08-21T07:01:48;20.50;99.90
6462;DHT22;3264;42.862;25.098;2022-08-21T07:04:18;20.40;99.90
6462;DHT22;3264;42.862;25.098;2022-08-21T07:06:52;20.50;99.90
6462;DHT22;3264;42.862;25.098;2022-08-21T07:09:25;20.30;99.90
6462;DHT22;3264;42.862;25.098;2022-08-21T07:15:31;20.40;99.90
6462;DHT22;3264;42.862;25.098;2022-08-21T07:18:02;20.60;99.90
6462;DHT22;3264;42.862;25.098;2022-08-21T07:20:33;20.60;99.90
6462;DHT22;3264;42.862;25.098;2022-08-21T07:29:50;20.40;99.90
6462;DHT22;3264;42.862;25.098;2022-08-21T07:32:20;20.30;99.90
6462;DHT22;3264;42.862;25.098;2022-08-21T07:34:51;20.40;99.90
6462;DHT22;3264;42.862;25.098;2022-08-21T07:37:46;20.30;99.90
6462;DHT22;3264;42.862;25.098;2022-08-21T07:40:17;20.30;99.90
6462;DHT22;3264;42.862;25.098;2022-08-21T07:42:47;20.40;99.90
6462;DHT22;3264;42.862;25.098;2022-08-21T07:45:19;20.50;99.90
6462;DHT22;3264;42.862;25.098;2022-08-21T07:47:48;20.90;99.90
6462;DHT22;3264;42.862;25.098;2022-08-21T07:50:18;21.00;99.90
6462;DHT22;3264;42.862;25.098;2022-08-21T07:52:47;21.10;99.90
6462;DHT22;3264;42.862;25.098;2022-08-21T07:55:31;21.10;99.90
6462;DHT22;3264;42.862;25.098;2022-08-21T07:57:59;21.00;99.90
6462;DHT22;3264;42.862;25.098;2022-08-21T08:00:42;21.10;99.90
6462;DHT22;3264;42.862;25.098;2022-08-21T08:03:11;21.20;99.90
6462;DHT22;3264;42.862;25.098;2022-08-21T08:05:57;21.00;99.90
6462;DHT22;3264;42.862;25.098;2022-08-21T08:08:42;21.20;99.90
6462;DHT22;3264;42.862;25.098;2022-08-21T08:11:20;21.20;99.90
6462;DHT22;3264;42.862;25.098;2022-08-21T08:17:17;21.60;99.90
6462;DHT22;3264;42.862;25.098;2022-08-21T08:23:31;21.30;99.90
6462;DHT22;3264;42.862;25.098;2022-08-21T08:25:58;21.40;99.90
6462;DHT22;3264;42.862;25.098;2022-08-21T08:28:44;21.50;99.90
6462;DHT22;3264;42.862;25.098;2022-08-21T08:39:10;21.60;99.90
6462;DHT22;3264;42.862;25.098;2022-08-21T08:41:49;22.30;99.90
6462;DHT22;3264;42.862;25.098;2022-08-21T08:47:39;22.30;99.90
6462;DHT22;3264;42.862;25.098;2022-08-21T08:50:24;22.40;99.90
6462;DHT22;3264;42.862;25.098;2022-08-21T08:52:57;22.60;99.90
6462;DHT22;3264;42.862;25.098;2022-08-21T08:55:46;22.60;99.90
6462;DHT22;3264;42.862;25.098;2022-08-21T09:05:03;22.60;99.90
6462;DHT22;3264;42.862;25.098;2022-08-21T09:11:19;22.70;99.90
6462;DHT22;3264;42.862;25.098;2022-08-21T09:14:10;22.70;99.90
6462;DHT22;3264;42.862;25.098;2022-08-21T09:16:47;23.00;99.90
6462;DHT22;3264;42.862;25.098;2022-08-21T09:19:29;23.20;99.90
6462;DHT22;3264;42.862;25.098;2022-08-21T09:22:09;23.40;99.90
6462;DHT22;3264;42.862;25.098;2022-08-21T09:24:59;23.30;99.90
6462;DHT22;3264;42.862;25.098;2022-08-21T09:30:50;23.20;99.90
6462;DHT22;3264;42.862;25.098;2022-08-21T09:33:21;23.20;99.90
6462;DHT22;3264;42.862;25.098;2022-08-21T09:35:53;23.20;99.90
6462;DHT22;3264;42.862;25.098;2022-08-21T09:38:29;23.10;99.90
6462;DHT22;3264;42.862;25.098;2022-08-21T09:41:00;22.90;99.90
6462;DHT22;3264;42.862;25.098;2022-08-21T09:52:29;23.20;99.90
6462;DHT22;3264;42.862;25.098;2022-08-21T09:54:59;23.40;99.90
6462;DHT22;3264;42.862;25.098;2022-08-21T09:57:48;23.60;99.90
6462;DHT22;3264;42.862;25.098;2022-08-21T10:19:23;24.50;99.90
6462;DHT22;3264;42.862;25.098;2022-08-21T10:22:02;24.50;99.90
6462;DHT22;3264;42.862;25.098;2022-08-21T10:24:37;24.00;99.90
6462;DHT22;3264;42.862;25.098;2022-08-21T10:27:25;24.30;99.90
6462;DHT22;3264;42.862;25.098;2022-08-21T10:30:05;23.90;99.90
6462;DHT22;3264;42.862;25.098;2022-08-21T10:39:50;24.10;99.90
6462;DHT22;3264;42.862;25.098;2022-08-21T10:42:32;24.20;99.90
6462;DHT22;3264;42.862;25.098;2022-08-21T10:45:14;24.50;99.90
6462;DHT22;3264;42.862;25.098;2022-08-21T10:47:48;24.30;99.90
6462;DHT22;3264;42.862;25.098;2022-08-21T10:50:28;24.50;99.90
6462;DHT22;3264;42.862;25.098;2022-08-21T10:53:11;24.50;99.90
6462;DHT22;3264;42.862;25.098;2022-08-21T10:56:17;24.70;99.90
6462;DHT22;3264;42.862;25.098;2022-08-21T10:58:55;24.60;99.90
6462;DHT22;3264;42.862;25.098;2022-08-21T11:01:28;24.50;99.90
6462;DHT22;3264;42.862;25.098;2022-08-21T11:04:10;24.70;99.90
6462;DHT22;3264;42.862;25.098;2022-08-21T11:06:44;25.00;99.90
6462;DHT22;3264;42.862;25.098;2022-08-21T11:09:17;24.70;99.90
6462;DHT22;3264;42.862;25.098;2022-08-21T11:11:52;24.70;99.60
6462;DHT22;3264;42.862;25.098;2022-08-21T11:14:29;24.20;99.90
6462;DHT22;3264;42.862;25.098;2022-08-21T11:17:02;24.20;99.90
6462;DHT22;3264;42.862;25.098;2022-08-21T11:19:40;24.20;99.90
6462;DHT22;3264;42.862;25.098;2022-08-21T11:22:15;24.40;99.90
6462;DHT22;3264;42.862;25.098;2022-08-21T11:24:50;24.60;99.90
6462;DHT22;3264;42.862;25.098;2022-08-21T11:27:26;24.70;99.90
6462;DHT22;3264;42.862;25.098;2022-08-21T11:29:56;24.20;99.00
6462;DHT22;3264;42.862;25.098;2022-08-21T11:32:44;24.40;99.90
6462;DHT22;3264;42.862;25.098;2022-08-21T11:38:40;24.80;99.90
6462;DHT22;3264;42.862;25.098;2022-08-21T11:41:19;25.00;99.90
6462;DHT22;3264;42.862;25.098;2022-08-21T11:43:55;25.10;99.30
6462;DHT22;3264;42.862;25.098;2022-08-21T11:46:33;25.20;99.90
6462;DHT22;3264;42.862;25.098;2022-08-21T11:49:17;25.20;98.80
6462;DHT22;3264;42.862;25.098;2022-08-21T11:55:19;25.00;98.90
6462;DHT22;3264;42.862;25.098;2022-08-21T11:57:54;25.20;99.50
6462;DHT22;3264;42.862;25.098;2022-08-21T12:07:14;25.10;99.90
6462;DHT22;3264;42.862;25.098;2022-08-21T12:09:53;25.20;99.90
6462;DHT22;3264;42.862;25.098;2022-08-21T12:12:46;25.30;99.90
6462;DHT22;3264;42.862;25.098;2022-08-21T12:19:10;25.40;98.90
6462;DHT22;3264;42.862;25.098;2022-08-21T12:21:50;25.60;99.90
6462;DHT22;3264;42.862;25.098;2022-08-21T12:24:34;25.70;98.10
6462;DHT22;3264;42.862;25.098;2022-08-21T12:27:22;26.10;96.70
6462;DHT22;3264;42.862;25.098;2022-08-21T12:29:56;26.80;95.90
6462;DHT22;3264;42.862;25.098;2022-08-21T12:32:29;27.50;96.10
6462;DHT22;3264;42.862;25.098;2022-08-21T12:35:05;27.30;95.20
6462;DHT22;3264;42.862;25.098;2022-08-21T12:41:00;26.30;96.10
6462;DHT22;3264;42.862;25.098;2022-08-21T12:46:55;27.20;96.40
6462;DHT22;3264;42.862;25.098;2022-08-21T12:49:28;27.30;96.00
6462;DHT22;3264;42.862;25.098;2022-08-21T12:52:03;27.40;95.10
6462;DHT22;3264;42.862;25.098;2022-08-21T12:54:38;26.90;96.00
6462;DHT22;3264;42.862;25.098;2022-08-21T12:57:17;26.40;94.90
6462;DHT22;3264;42.862;25.098;2022-08-21T12:59:46;26.50;96.20
6462;DHT22;3264;42.862;25.098;2022-08-21T13:02:37;26.20;95.80
6462;DHT22;3264;42.862;25.098;2022-08-21T13:05:14;26.10;96.10
6462;DHT22;3264;42.862;25.098;2022-08-21T13:07:55;26.10;97.30
6462;DHT22;3264;42.862;25.098;2022-08-21T13:10:26;26.10;96.90
6462;DHT22;3264;42.862;25.098;2022-08-21T13:12:59;26.30;97.50
6462;DHT22;3264;42.862;25.098;2022-08-21T13:15:32;26.00;97.10
6462;DHT22;3264;42.862;25.098;2022-08-21T13:18:02;26.20;99.00
6462;DHT22;3264;42.862;25.098;2022-08-21T13:20:33;25.80;98.20
6462;DHT22;3264;42.862;25.098;2022-08-21T13:23:02;25.70;97.90
6462;DHT22;3264;42.862;25.098;2022-08-21T13:26:11;25.70;98.00
6462;DHT22;3264;42.862;25.098;2022-08-21T13:35:51;25.80;99.90
6462;DHT22;3264;42.862;25.098;2022-08-21T13:38:24;25.80;99.90
6462;DHT22;3264;42.862;25.098;2022-08-21T13:41:01;25.80;99.90
6462;DHT22;3264;42.862;25.098;2022-08-21T13:43:45;25.80;99.90
6462;DHT22;3264;42.862;25.098;2022-08-21T13:46:20;25.80;99.70
6462;DHT22;3264;42.862;25.098;2022-08-21T13:49:12;25.90;99.50
6462;DHT22;3264;42.862;25.098;2022-08-21T13:51:48;25.50;99.90
6462;DHT22;3264;42.862;25.098;2022-08-21T13:54:25;25.60;99.90
6462;DHT22;3264;42.862;25.098;2022-08-21T13:56:55;25.50;99.90
6462;DHT22;3264;42.862;25.098;2022-08-21T13:59:33;25.60;99.90
6462;DHT22;3264;42.862;25.098;2022-08-21T14:02:12;25.50;99.90
6462;DHT22;3264;42.862;25.098;2022-08-21T14:04:54;25.40;99.90
6462;DHT22;3264;42.862;25.098;2022-08-21T14:11:11;26.00;99.90
6462;DHT22;3264;42.862;25.098;2022-08-21T14:13:42;25.50;99.90
6462;DHT22;3264;42.862;25.098;2022-08-21T14:16:17;25.80;99.90
6462;DHT22;3264;42.862;25.098;2022-08-21T14:22:36;25.90;99.90
6462;DHT22;3264;42.862;25.098;2022-08-21T14:25:06;25.90;99.90
6462;DHT22;3264;42.862;25.098;2022-08-21T14:27:40;26.00;99.90
6462;DHT22;3264;42.862;25.098;2022-08-21T14:30:16;26.10;99.90
6462;DHT22;3264;42.862;25.098;2022-08-21T14:32:46;26.00;99.90
6462;DHT22;3264;42.862;25.098;2022-08-21T14:35:15;26.00;99.90
6462;DHT22;3264;42.862;25.098;2022-08-21T14:37:44;26.00;99.90
6462;DHT22;3264;42.862;25.098;2022-08-21T14:40:13;26.10;99.90
6462;DHT22;3264;42.862;25.098;2022-08-21T14:42:43;25.80;99.90
6462;DHT22;3264;42.862;25.098;2022-08-21T14:45:14;25.70;99.90
6462;DHT22;3264;42.862;25.098;2022-08-21T14:48:10;25.80;99.90
6462;DHT22;3264;42.862;25.098;2022-08-21T14:50:39;25.60;99.90
6462;DHT22;3264;42.862;25.098;2022-08-21T14:53:08;25.70;99.90
6462;DHT22;3264;42.862;25.098;2022-08-21T14:55:37;25.70;99.90
6462;DHT22;3264;42.862;25.098;2022-08-21T15:01:41;25.80;99.90
6462;DHT22;3264;42.862;25.098;2022-08-21T15:04:08;25.70;99.90
6462;DHT22;3264;42.862;25.098;2022-08-21T15:09:58;25.50;99.90
6462;DHT22;3264;42.862;25.098;2022-08-21T15:12:27;25.40;99.90
6462;DHT22;3264;42.862;25.098;2022-08-21T15:14:56;25.40;99.90
6462;DHT22;3264;42.862;25.098;2022-08-21T15:17:26;25.30;99.90
6462;DHT22;3264;42.862;25.098;2022-08-21T15:19:54;25.20;99.90
6462;DHT22;3264;42.862;25.098;2022-08-21T15:22:22;25.10;99.90
6462;DHT22;3264;42.862;25.098;2022-08-21T15:24:51;25.10;99.90
6462;DHT22;3264;42.862;25.098;2022-08-21T15:27:19;25.00;99.90
6462;DHT22;3264;42.862;25.098;2022-08-21T15:29:48;24.90;99.90
6462;DHT22;3264;42.862;25.098;2022-08-21T15:35:41;24.80;99.90
6462;DHT22;3264;42.862;25.098;2022-08-21T15:38:12;24.60;99.90
6462;DHT22;3264;42.862;25.098;2022-08-21T15:40:42;24.60;99.90
6462;DHT22;3264;42.862;25.098;2022-08-21T15:43:22;24.70;99.90
6462;DHT22;3264;42.862;25.098;2022-08-21T15:49:14;24.70;99.90
6462;DHT22;3264;42.862;25.098;2022-08-21T15:52:06;24.70;99.90
6462;DHT22;3264;42.862;25.098;2022-08-21T15:54:39;24.50;99.90
6462;DHT22;3264;42.862;25.098;2022-08-21T15:57:10;24.40;99.90
6462;DHT22;3264;42.862;25.098;2022-08-21T15:59:41;24.30;99.90
6462;DHT22;3264;42.862;25.098;2022-08-21T16:02:13;24.20;99.90
6462;DHT22;3264;42.862;25.098;2022-08-21T16:04:42;24.10;99.90
6462;DHT22;3264;42.862;25.098;2022-08-21T16:07:12;24.00;99.90
6462;DHT22;3264;42.862;25.098;2022-08-21T16:09:40;24.00;99.90
6462;DHT22;3264;42.862;25.098;2022-08-21T16:12:11;24.00;99.90
6462;DHT22;3264;42.862;25.098;2022-08-21T16:21:26;23.70;99.90
6462;DHT22;3264;42.862;25.098;2022-08-21T16:23:56;23.70;99.90
6462;DHT22;3264;42.862;25.098;2022-08-21T16:26:24;23.80;99.90
6462;DHT22;3264;42.862;25.098;2022-08-21T16:28:56;23.80;99.90
6462;DHT22;3264;42.862;25.098;2022-08-21T17:09:52;22.70;99.90
6462;DHT22;3264;42.862;25.098;2022-08-21T17:12:32;22.80;99.90
6462;DHT22;3264;42.862;25.098;2022-08-21T17:15:46;22.60;99.90
6462;DHT22;3264;42.862;25.098;2022-08-21T17:18:42;22.50;99.90
6462;DHT22;3264;42.862;25.098;2022-08-21T17:21:56;22.40;99.90
6462;DHT22;3264;42.862;25.098;2022-08-21T17:27:46;22.40;99.90
6462;DHT22;3264;42.862;25.098;2022-08-21T17:30:19;22.30;99.90
6462;DHT22;3264;42.862;25.098;2022-08-21T17:32:52;22.30;99.90
6462;DHT22;3264;42.862;25.098;2022-08-21T17:35:29;22.20;99.90
6462;DHT22;3264;42.862;25.098;2022-08-21T17:44:44;21.90;99.90
6462;DHT22;3264;42.862;25.098;2022-08-21T17:47:13;21.80;99.90
6462;DHT22;3264;42.862;25.098;2022-08-21T17:49:42;21.80;99.90
6462;DHT22;3264;42.862;25.098;2022-08-21T17:55:33;21.80;99.90
6462;DHT22;3264;42.862;25.098;2022-08-21T17:58:02;21.70;99.90
6462;DHT22;3264;42.862;25.098;2022-08-21T18:03:53;21.60;99.90
6462;DHT22;3264;42.862;25.098;2022-08-21T18:06:23;21.60;99.90
6462;DHT22;3264;42.862;25.098;2022-08-21T18:08:52;21.50;99.90
6462;DHT22;3264;42.862;25.098;2022-08-21T18:11:24;21.50;99.90
6462;DHT22;3264;42.862;25.098;2022-08-21T18:14:00;21.50;99.90
6462;DHT22;3264;42.862;25.098;2022-08-21T18:16:31;21.40;99.90
6462;DHT22;3264;42.862;25.098;2022-08-21T18:19:03;21.40;99.90
6462;DHT22;3264;42.862;25.098;2022-08-21T18:21:33;21.40;99.90
6462;DHT22;3264;42.862;25.098;2022-08-21T18:24:03;21.30;99.90
6462;DHT22;3264;42.862;25.098;2022-08-21T18:26:36;21.20;99.90
6462;DHT22;3264;42.862;25.098;2022-08-21T18:29:07;21.30;99.90
6462;DHT22;3264;42.862;25.098;2022-08-21T18:31:38;21.30;99.90
6462;DHT22;3264;42.862;25.098;2022-08-21T18:34:15;21.20;99.90
6462;DHT22;3264;42.862;25.098;2022-08-21T18:36:45;21.20;99.90
6462;DHT22;3264;42.862;25.098;2022-08-21T18:39:15;21.10;99.90
6462;DHT22;3264;42.862;25.098;2022-08-21T18:41:45;21.10;99.90
6462;DHT22;3264;42.862;25.098;2022-08-21T18:44:17;21.10;99.90
6462;DHT22;3264;42.862;25.098;2022-08-21T18:46:50;21.00;99.90
6462;DHT22;3264;42.862;25.098;2022-08-21T18:49:48;20.90;99.90
6462;DHT22;3264;42.862;25.098;2022-08-21T18:52:17;21.00;99.90
6462;DHT22;3264;42.862;25.098;2022-08-21T18:54:46;20.90;99.90
6462;DHT22;3264;42.862;25.098;2022-08-21T18:57:16;20.80;99.90
6462;DHT22;3264;42.862;25.098;2022-08-21T18:59:45;20.70;99.90
6462;DHT22;3264;42.862;25.098;2022-08-21T19:02:14;20.60;99.90
6462;DHT22;3264;42.862;25.098;2022-08-21T19:04:43;20.50;99.90
6462;DHT22;3264;42.862;25.098;2022-08-21T19:07:14;20.50;99.90
6462;DHT22;3264;42.862;25.098;2022-08-21T19:09:45;20.50;99.90
6462;DHT22;3264;42.862;25.098;2022-08-21T19:12:19;20.60;99.90
6462;DHT22;3264;42.862;25.098;2022-08-21T19:14:51;20.60;99.90
6462;DHT22;3264;42.862;25.098;2022-08-21T19:17:19;20.60;99.90
6462;DHT22;3264;42.862;25.098;2022-08-21T19:19:48;20.60;99.90
6462;DHT22;3264;42.862;25.098;2022-08-21T19:22:48;20.50;99.90
6462;DHT22;3264;42.862;25.098;2022-08-21T19:25:17;20.50;99.90
6462;DHT22;3264;42.862;25.098;2022-08-21T19:27:46;20.40;99.90
6462;DHT22;3264;42.862;25.098;2022-08-21T19:30:14;20.40;99.90
6462;DHT22;3264;42.862;25.098;2022-08-21T19:32:45;20.30;99.90
6462;DHT22;3264;42.862;25.098;2022-08-21T19:35:15;20.40;99.90
6462;DHT22;3264;42.862;25.098;2022-08-21T19:37:58;20.40;99.90
6462;DHT22;3264;42.862;25.098;2022-08-21T19:40:29;20.30;99.90
6462;DHT22;3264;42.862;25.098;2022-08-21T19:42:59;20.30;99.90
6462;DHT22;3264;42.862;25.098;2022-08-21T19:45:28;20.40;99.90
6462;DHT22;3264;42.862;25.098;2022-08-21T19:47:57;20.40;99.90
6462;DHT22;3264;42.862;25.098;2022-08-21T19:50:26;20.30;99.90
6462;DHT22;3264;42.862;25.098;2022-08-21T19:52:58;20.40;99.90
6462;DHT22;3264;42.862;25.098;2022-08-21T19:59:10;20.50;99.90
6462;DHT22;3264;42.862;25.098;2022-08-21T20:05:02;20.30;99.90
6462;DHT22;3264;42.862;25.098;2022-08-21T20:07:38;20.30;99.90
6462;DHT22;3264;42.862;25.098;2022-08-21T20:10:08;20.30;99.90
6462;DHT22;3264;42.862;25.098;2022-08-21T20:12:37;20.30;99.90
6462;DHT22;3264;42.862;25.098;2022-08-21T20:15:07;20.20;99.90
6462;DHT22;3264;42.862;25.098;2022-08-21T20:17:35;20.30;99.90
6462;DHT22;3264;42.862;25.098;2022-08-21T20:20:07;20.40;99.90
6462;DHT22;3264;42.862;25.098;2022-08-21T20:22:36;20.40;99.90
6462;DHT22;3264;42.862;25.098;2022-08-21T20:25:07;20.40;99.90
6462;DHT22;3264;42.862;25.098;2022-08-21T20:27:37;20.30;99.90
6462;DHT22;3264;42.862;25.098;2022-08-21T20:30:08;20.40;99.90
6462;DHT22;3264;42.862;25.098;2022-08-21T20:32:37;20.30;99.90
6462;DHT22;3264;42.862;25.098;2022-08-21T20:35:06;20.40;99.90
6462;DHT22;3264;42.862;25.098;2022-08-21T20:37:35;20.50;99.90
6462;DHT22;3264;42.862;25.098;2022-08-21T20:40:05;20.40;99.90
6462;DHT22;3264;42.862;25.098;2022-08-21T20:42:46;20.30;99.90
6462;DHT22;3264;42.862;25.098;2022-08-21T20:45:18;20.40;99.90
6462;DHT22;3264;42.862;25.098;2022-08-21T20:47:47;20.40;99.90
6462;DHT22;3264;42.862;25.098;2022-08-21T20:50:19;20.40;99.90
6462;DHT22;3264;42.862;25.098;2022-08-21T20:52:49;20.50;99.90
6462;DHT22;3264;42.862;25.098;2022-08-21T20:55:22;20.40;99.90
6462;DHT22;3264;42.862;25.098;2022-08-21T20:58:00;20.30;99.90
6462;DHT22;3264;42.862;25.098;2022-08-21T21:00:34;20.40;99.90
6462;DHT22;3264;42.862;25.098;2022-08-21T21:06:14;20.50;99.90
6462;DHT22;3264;42.862;25.098;2022-08-21T21:08:48;20.50;99.90
6462;DHT22;3264;42.862;25.098;2022-08-21T21:11:22;20.50;99.90
6462;DHT22;3264;42.862;25.098;2022-08-21T21:13:54;20.40;99.90
6462;DHT22;3264;42.862;25.098;2022-08-21T21:16:31;20.50;99.90
6462;DHT22;3264;42.862;25.098;2022-08-21T21:19:02;20.30;99.90
6462;DHT22;3264;42.862;25.098;2022-08-21T21:21:33;20.40;99.90
6462;DHT22;3264;42.862;25.098;2022-08-21T21:24:06;20.30;99.90
6462;DHT22;3264;42.862;25.098;2022-08-21T21:26:40;20.30;99.90
6462;DHT22;3264;42.862;25.098;2022-08-21T21:29:41;20.30;99.90
6462;DHT22;3264;42.862;25.098;2022-08-21T21:32:10;20.40;99.90
6462;DHT22;3264;42.862;25.098;2022-08-21T21:34:40;20.30;99.90
6462;DHT22;3264;42.862;25.098;2022-08-21T21:37:15;20.30;99.90
6462;DHT22;3264;42.862;25.098;2022-08-21T21:39:49;20.40;99.90